createdAt,value
2018-04-19T00:03:33.084Z,13.00
2018-04-19T00:06:00.081Z,13.10
2018-04-19T00:08:27.100Z,12.80
2018-04-19T00:10:55.102Z,12.80
2018-04-19T00:13:22.092Z,12.80
2018-04-19T00:15:49.434Z,12.80
2018-04-19T00:18:17.209Z,12.70
2018-04-19T00:20:44.665Z,12.80
2018-04-19T00:23:11.716Z,12.70
2018-04-19T00:25:39.064Z,12.70
2018-04-19T00:28:07.107Z,12.70
2018-04-19T00:30:34.359Z,12.70
2018-04-19T00:33:01.777Z,12.60
2018-04-19T00:35:30.010Z,12.60
2018-04-19T00:40:37.645Z,12.90
2018-04-19T00:43:05.099Z,12.40
2018-04-19T00:45:32.092Z,12.30
2018-04-19T00:47:59.123Z,12.30
2018-04-19T00:50:26.127Z,12.30
2018-04-19T00:53:04.995Z,12.30
2018-04-19T00:55:31.983Z,12.20
2018-04-19T00:57:58.969Z,12.10
2018-04-19T01:00:26.025Z,12.10
2018-04-19T01:02:53.016Z,12.10
2018-04-19T01:05:20.033Z,12.00
2018-04-19T01:07:48.333Z,12.00
2018-04-19T01:10:15.388Z,11.90
2018-04-19T01:12:42.336Z,11.80
2018-04-19T01:15:09.369Z,11.80
2018-04-19T01:17:36.376Z,11.80
2018-04-19T01:20:03.382Z,11.70
2018-04-19T01:22:30.409Z,11.70
2018-04-19T01:24:57.420Z,11.70
2018-04-19T01:29:51.573Z,11.60
2018-04-19T01:32:18.599Z,11.60
2018-04-19T01:34:45.609Z,11.50
2018-04-19T01:37:12.649Z,11.40
2018-04-19T01:39:39.998Z,11.40
2018-04-19T01:44:34.893Z,11.40
2018-04-19T01:47:02.227Z,11.40
2018-04-19T01:49:29.883Z,11.40
2018-04-19T01:51:57.201Z,11.30
2018-04-19T01:56:59.637Z,12.00
2018-04-19T01:59:26.917Z,11.20
2018-04-19T02:01:53.993Z,11.20
2018-04-19T02:04:21.300Z,11.20
2018-04-19T02:06:48.255Z,11.20
2018-04-19T02:09:15.253Z,11.10
2018-04-19T02:11:42.298Z,11.10
2018-04-19T02:14:09.316Z,11.00
2018-04-19T02:16:36.340Z,11.00
2018-04-19T02:19:03.373Z,10.90
2018-04-19T02:21:30.393Z,10.90
2018-04-19T02:23:57.399Z,10.80
2018-04-19T02:26:24.454Z,10.70
2018-04-19T02:28:51.462Z,10.70
2018-04-19T02:31:18.510Z,10.60
2018-04-19T02:33:45.559Z,10.50
2018-04-19T02:36:12.569Z,10.50
2018-04-19T02:38:39.583Z,10.60
2018-04-19T02:41:06.618Z,10.60
2018-04-19T02:43:33.667Z,10.50
2018-04-19T02:46:00.690Z,10.50
2018-04-19T02:50:54.839Z,10.30
2018-04-19T02:53:21.840Z,10.30
2018-04-19T02:58:15.993Z,10.30
2018-04-19T03:00:42.998Z,10.20
2018-04-19T03:03:10.052Z,10.00
2018-04-19T03:05:37.068Z,10.10
2018-04-19T03:08:04.104Z,10.10
2018-04-19T03:12:58.230Z,10.10
2018-04-19T03:15:27.013Z,10.10
2018-04-19T03:17:54.063Z,10.10
2018-04-19T03:23:00.566Z,10.00
2018-04-19T03:25:28.532Z,10.00
2018-04-19T03:27:55.518Z,9.80
2018-04-19T03:30:22.565Z,9.70
2018-04-19T03:32:49.564Z,9.80
2018-04-19T03:35:16.583Z,9.80
2018-04-19T03:37:46.476Z,9.80
2018-04-19T03:42:42.587Z,9.70
2018-04-19T03:45:09.615Z,9.70
2018-04-19T03:47:36.641Z,9.70
2018-04-19T03:50:03.647Z,9.60
2018-04-19T03:55:10.444Z,12.00
2018-04-19T03:57:37.505Z,9.70
2018-04-19T04:00:05.492Z,9.70
2018-04-19T04:02:32.505Z,9.70
2018-04-19T04:04:59.519Z,9.70
2018-04-19T04:07:26.520Z,9.70
2018-04-19T04:09:53.541Z,9.70
2018-04-19T04:12:20.558Z,9.60
2018-04-19T04:14:47.549Z,9.60
2018-04-19T04:17:26.351Z,9.60
2018-04-19T04:22:38.182Z,9.50
2018-04-19T04:25:05.174Z,9.40
2018-04-19T04:27:32.180Z,9.40
2018-04-19T04:29:59.240Z,9.40
2018-04-19T04:32:26.234Z,9.40
2018-04-19T04:34:53.258Z,9.40
2018-04-19T04:37:20.297Z,9.30
2018-04-19T04:39:47.314Z,9.30
2018-04-19T04:42:15.185Z,9.30
2018-04-19T04:44:42.201Z,9.30
2018-04-19T04:47:09.199Z,9.40
2018-04-19T04:49:36.238Z,9.40
2018-04-19T04:52:03.289Z,9.40
2018-04-19T04:54:30.269Z,9.30
2018-04-19T04:56:57.266Z,9.30
2018-04-19T04:59:24.285Z,9.00
2018-04-19T05:01:51.286Z,9.00
2018-04-19T05:04:20.898Z,8.80
2018-04-19T05:06:47.831Z,9.00
2018-04-19T05:09:14.832Z,9.00
2018-04-19T05:11:42.787Z,8.80
2018-04-19T05:14:09.809Z,9.00
2018-04-19T05:21:47.122Z,10.00
2018-04-19T05:26:43.780Z,10.70
2018-04-19T05:29:11.118Z,10.80
2018-04-19T05:31:38.606Z,11.00
2018-04-19T05:34:05.647Z,11.20
2018-04-19T05:36:32.638Z,11.40
2018-04-19T05:38:59.646Z,11.60
2018-04-19T05:41:26.684Z,11.40
2018-04-19T05:43:54.390Z,11.20
2018-04-19T05:46:21.399Z,10.90
2018-04-19T05:48:49.303Z,11.30
2018-04-19T05:51:16.347Z,11.90
2018-04-19T05:53:44.178Z,11.60
2018-04-19T05:56:11.281Z,11.10
2018-04-19T05:58:41.833Z,10.80
2018-04-19T06:03:35.981Z,10.90
2018-04-19T06:06:02.997Z,10.80
2018-04-19T06:08:30.007Z,10.80
2018-04-19T06:10:57.033Z,10.50
2018-04-19T06:13:24.099Z,10.90
2018-04-19T06:15:51.383Z,10.80
2018-04-19T06:18:18.410Z,10.80
2018-04-19T06:20:48.608Z,11.00
2018-04-19T06:23:13.680Z,11.50
2018-04-19T06:25:40.985Z,12.20
2018-04-19T06:28:07.983Z,12.00
2018-04-19T06:30:35.005Z,12.30
2018-04-19T06:33:02.059Z,13.10
2018-04-19T06:35:29.070Z,13.30
2018-04-19T06:40:23.192Z,12.90
2018-04-19T06:42:50.203Z,12.30
2018-04-19T06:47:55.741Z,13.10
2018-04-19T06:50:22.746Z,13.80
2018-04-19T06:52:49.756Z,14.10
2018-04-19T06:55:16.803Z,14.00
2018-04-19T06:57:44.899Z,14.40
2018-04-19T07:00:11.925Z,14.20
2018-04-19T07:02:39.373Z,14.50
2018-04-19T07:07:33.472Z,15.30
2018-04-19T07:10:00.517Z,15.20
2018-04-19T07:14:54.625Z,15.40
2018-04-19T07:17:21.657Z,14.30
2018-04-19T07:19:48.671Z,15.00
2018-04-19T07:22:15.673Z,14.30
2018-04-19T07:24:43.188Z,14.80
2018-04-19T07:27:10.183Z,14.80
2018-04-19T07:29:37.208Z,14.10
2018-04-19T07:32:04.288Z,15.10
2018-04-19T07:34:31.250Z,15.20
2018-04-19T07:36:58.992Z,14.80
2018-04-19T07:39:26.048Z,14.90
2018-04-19T07:41:53.907Z,14.10
2018-04-19T07:44:20.918Z,14.80
2018-04-19T07:46:47.974Z,14.70
2018-04-19T07:49:14.987Z,15.10
2018-04-19T07:51:41.992Z,15.80
2018-04-19T07:54:09.049Z,15.80
2018-04-19T07:56:36.057Z,16.30
2018-04-19T07:59:05.025Z,16.30
2018-04-19T08:03:59.711Z,15.50
2018-04-19T08:06:26.957Z,16.00
2018-04-19T08:08:54.025Z,16.40
2018-04-19T08:11:21.069Z,16.70
2018-04-19T08:16:26.605Z,16.50
2018-04-19T08:18:53.607Z,16.90
2018-04-19T08:21:20.606Z,16.80
2018-04-19T08:23:47.637Z,17.20
2018-04-19T08:26:14.649Z,17.40
2018-04-19T08:28:41.644Z,17.20
2018-04-19T08:31:08.696Z,17.90
2018-04-19T08:36:02.831Z,19.10
2018-04-19T08:38:29.874Z,19.20
2018-04-19T08:40:56.898Z,19.40
2018-04-19T08:43:23.914Z,19.90
2018-04-19T08:45:50.958Z,18.90
2018-04-19T08:48:17.975Z,18.80
2018-04-19T08:50:44.975Z,19.00
2018-04-19T08:53:12.883Z,19.30
2018-04-19T08:55:39.886Z,19.90
2018-04-19T08:58:07.858Z,20.10
2018-04-19T09:00:34.934Z,20.20
2018-04-19T09:03:01.960Z,19.20
2018-04-19T09:05:28.982Z,19.60
2018-04-19T09:07:56.058Z,19.60
2018-04-19T09:10:23.042Z,19.50
2018-04-19T09:12:50.071Z,19.60
2018-04-19T09:15:17.846Z,20.20
2018-04-19T09:17:44.887Z,20.30
2018-04-19T09:20:11.902Z,20.00
2018-04-19T09:22:38.942Z,20.80
2018-04-19T09:27:44.503Z,21.90
2018-04-19T09:30:11.513Z,22.10
2018-04-19T09:32:38.511Z,22.40
2018-04-19T09:35:05.572Z,22.70
2018-04-19T09:37:32.591Z,23.20
2018-04-19T09:39:59.614Z,22.60
2018-04-19T09:42:26.654Z,23.20
2018-04-19T09:44:53.994Z,23.00
2018-04-19T09:47:21.034Z,23.70
2018-04-19T09:49:48.085Z,23.30
2018-04-19T09:52:15.112Z,23.70
2018-04-19T09:54:42.109Z,22.70
2018-04-19T09:57:09.155Z,23.20
2018-04-19T09:59:36.266Z,23.10
2018-04-19T10:04:30.312Z,22.60
2018-04-19T10:06:58.185Z,23.10
2018-04-19T10:09:25.203Z,23.30
2018-04-19T10:11:54.032Z,23.90
2018-04-19T10:14:21.046Z,22.80
2018-04-19T10:16:48.888Z,23.50
2018-04-19T10:19:15.952Z,23.40
2018-04-19T10:21:42.991Z,24.10
2018-04-19T10:24:10.882Z,23.30
2018-04-19T10:26:38.802Z,23.00
2018-04-19T10:31:32.895Z,23.70
2018-04-19T10:33:59.946Z,23.90
2018-04-19T10:38:55.008Z,23.00
2018-04-19T10:41:22.058Z,22.90
2018-04-19T10:43:49.073Z,23.70
2018-04-19T10:48:56.600Z,24.50
2018-04-19T10:51:23.602Z,24.50
2018-04-19T10:53:50.608Z,24.40
2018-04-19T10:56:17.651Z,24.90
2018-04-19T10:58:44.652Z,24.40
2018-04-19T11:01:11.669Z,25.20
2018-04-19T11:03:38.713Z,24.80
2018-04-19T11:06:05.720Z,24.00
2018-04-19T11:08:32.737Z,24.80
2018-04-19T11:10:59.776Z,25.00
2018-04-19T11:13:26.785Z,24.70
2018-04-19T11:15:53.806Z,25.10
2018-04-19T11:18:20.847Z,24.60
2018-04-19T11:20:47.859Z,24.40
2018-04-19T11:23:14.874Z,24.80
2018-04-19T11:25:41.926Z,24.40
2018-04-19T11:28:09.705Z,25.10
2018-04-19T11:30:37.562Z,24.60
2018-04-19T11:37:59.665Z,25.40
2018-04-19T11:40:26.713Z,25.60
2018-04-19T11:42:54.675Z,25.00
2018-04-19T11:45:21.687Z,24.70
2018-04-19T11:47:48.740Z,24.50
2018-04-19T11:50:15.760Z,25.30
2018-04-19T11:52:43.723Z,25.60
2018-04-19T11:55:10.763Z,25.30
2018-04-19T11:57:37.765Z,25.10
2018-04-19T12:00:04.772Z,26.20
2018-04-19T12:02:32.812Z,26.60
2018-04-19T12:04:59.825Z,26.80
2018-04-19T12:07:26.824Z,26.50
2018-04-19T12:09:53.886Z,25.50
2018-04-19T12:14:59.425Z,25.30
2018-04-19T12:17:26.435Z,26.00
2018-04-19T12:19:53.439Z,25.90
2018-04-19T12:24:47.599Z,26.00
2018-04-19T12:27:14.602Z,26.10
2018-04-19T12:29:42.010Z,25.90
2018-04-19T12:32:09.025Z,25.50
2018-04-19T12:34:36.054Z,25.30
2018-04-19T12:37:03.086Z,25.60
2018-04-19T12:39:30.099Z,26.10
2018-04-19T12:41:57.112Z,25.90
2018-04-19T12:44:24.154Z,26.40
2018-04-19T12:46:54.165Z,27.00
2018-04-19T12:49:21.174Z,26.80
2018-04-19T12:51:48.216Z,26.80
2018-04-19T12:56:43.318Z,27.20
2018-04-19T12:59:10.379Z,27.40
2018-04-19T13:01:37.375Z,27.30
2018-04-19T13:04:04.395Z,26.30
2018-04-19T13:06:31.455Z,26.40
2018-04-19T13:08:59.299Z,25.80
2018-04-19T13:11:26.325Z,25.40
2018-04-19T13:16:22.708Z,26.00
2018-04-19T13:18:49.703Z,26.20
2018-04-19T13:21:16.749Z,25.90
2018-04-19T13:23:43.749Z,25.90
2018-04-19T13:26:11.752Z,25.90
2018-04-19T13:28:38.801Z,25.80
2018-04-19T13:31:05.803Z,26.00
2018-04-19T13:33:33.671Z,26.10
2018-04-19T13:38:39.199Z,26.50
2018-04-19T13:41:06.257Z,26.40
2018-04-19T13:43:34.092Z,26.30
2018-04-19T13:46:01.103Z,26.20
2018-04-19T13:48:30.172Z,26.10
2018-04-19T13:50:57.179Z,26.30
2018-04-19T13:53:24.180Z,26.40
2018-04-19T13:55:51.230Z,26.50
2018-04-19T13:58:20.166Z,26.50
2018-04-19T14:00:48.142Z,26.70
2018-04-19T14:03:15.187Z,27.10
2018-04-19T14:08:09.330Z,26.30
2018-04-19T14:10:36.323Z,26.10
2018-04-19T14:15:30.425Z,26.40
2018-04-19T14:17:57.477Z,26.50
2018-04-19T14:20:24.482Z,26.80
2018-04-19T14:22:51.491Z,26.70
2018-04-19T14:25:19.344Z,26.50
2018-04-19T14:27:46.359Z,26.60
2018-04-19T14:32:41.421Z,26.90
2018-04-19T14:35:08.433Z,27.10
2018-04-19T14:37:35.457Z,27.60
2018-04-19T14:40:02.507Z,27.40
2018-04-19T14:42:29.507Z,27.30
2018-04-19T14:44:57.324Z,27.30
2018-04-19T14:47:24.364Z,27.10
2018-04-19T14:49:51.359Z,26.80
2018-04-19T14:52:18.352Z,26.90
2018-04-19T14:54:45.395Z,26.90
2018-04-19T14:57:12.416Z,26.80
2018-04-19T15:02:22.976Z,26.80
2018-04-19T15:04:50.839Z,26.60
2018-04-19T15:07:20.374Z,26.80
2018-04-19T15:09:47.346Z,26.80
2018-04-19T15:12:15.183Z,26.90
2018-04-19T15:14:43.153Z,26.50
2018-04-19T15:17:10.203Z,26.60
2018-04-19T15:22:04.306Z,26.50
2018-04-19T15:24:31.312Z,26.50
2018-04-19T15:26:58.312Z,26.70
2018-04-19T15:29:25.323Z,26.50
2018-04-19T15:31:52.368Z,26.60
2018-04-19T15:34:19.340Z,26.50
2018-04-19T15:36:46.330Z,26.50
2018-04-19T15:39:13.358Z,26.40
2018-04-19T15:41:40.423Z,26.40
2018-04-19T15:44:07.353Z,26.30
2018-04-19T15:46:34.442Z,26.30
2018-04-19T15:49:01.386Z,26.20
2018-04-19T15:51:28.395Z,26.20
2018-04-19T15:53:55.619Z,26.20
2018-04-19T15:56:22.444Z,26.20
2018-04-19T15:58:49.450Z,26.10
2018-04-19T16:01:16.922Z,26.00
2018-04-19T16:03:43.895Z,26.00
2018-04-19T16:06:10.891Z,26.00
2018-04-19T16:08:37.912Z,25.90
2018-04-19T16:11:05.628Z,26.00
2018-04-19T16:16:00.196Z,25.90
2018-04-19T16:18:27.180Z,25.80
2018-04-19T16:20:54.165Z,25.80
2018-04-19T16:23:21.195Z,25.80
2018-04-19T16:28:26.694Z,25.60
2018-04-19T16:30:53.675Z,25.30
2018-04-19T16:33:20.668Z,25.30
2018-04-19T16:35:47.686Z,25.30
2018-04-19T16:38:14.667Z,25.20
2018-04-19T16:40:41.649Z,25.30
2018-04-19T16:43:08.671Z,25.40
2018-04-19T16:45:35.988Z,25.30
2018-04-19T16:48:02.969Z,25.30
2018-04-19T16:50:29.993Z,24.80
2018-04-19T16:52:56.987Z,24.30
2018-04-19T16:57:54.217Z,24.50
2018-04-19T17:00:21.204Z,24.50
2018-04-19T17:05:15.273Z,24.30
2018-04-19T17:07:42.255Z,24.30
2018-04-19T17:10:09.242Z,24.10
2018-04-19T17:12:36.549Z,24.10
2018-04-19T17:15:03.406Z,23.90
2018-04-19T17:17:30.383Z,23.80
2018-04-19T17:19:57.407Z,23.80
2018-04-19T17:22:24.396Z,23.70
2018-04-19T17:24:51.386Z,23.60
2018-04-19T17:27:18.403Z,23.50
2018-04-19T17:29:45.708Z,23.40
2018-04-19T17:32:12.699Z,23.40
2018-04-19T17:34:40.667Z,23.40
2018-04-19T17:37:08.488Z,23.20
2018-04-19T17:39:35.469Z,23.20
2018-04-19T17:42:02.509Z,23.10
2018-04-19T17:44:29.469Z,23.10
2018-04-19T17:46:57.423Z,23.00
2018-04-19T17:52:02.910Z,22.90
2018-04-19T17:54:29.929Z,22.80
2018-04-19T17:56:56.908Z,22.60
2018-04-19T17:59:26.832Z,22.70
2018-04-19T18:01:50.908Z,22.80
2018-04-19T18:04:18.307Z,22.70
2018-04-19T18:06:45.763Z,22.50
2018-04-19T18:09:13.226Z,22.60
2018-04-19T18:11:41.071Z,22.60
2018-04-19T18:14:08.121Z,22.50
2018-04-19T18:16:35.107Z,22.30
2018-04-19T18:19:02.106Z,22.10
2018-04-19T18:21:29.112Z,22.10
2018-04-19T18:23:56.158Z,22.20
2018-04-19T18:26:23.535Z,22.10
2018-04-19T18:28:50.743Z,22.00
2018-04-19T18:31:18.876Z,22.00
2018-04-19T18:33:45.544Z,21.90
2018-04-19T18:36:13.360Z,21.80
2018-04-19T18:38:39.904Z,21.60
2018-04-19T18:41:06.906Z,21.70
2018-04-19T18:43:33.914Z,21.60
2018-04-19T18:46:00.969Z,21.50
2018-04-19T18:48:27.975Z,21.50
2018-04-19T18:50:54.985Z,21.50
2018-04-19T18:53:22.241Z,23.00
2018-04-19T18:55:49.487Z,21.40
2018-04-19T18:58:16.496Z,21.20
2018-04-19T19:00:43.518Z,21.20
2018-04-19T19:03:12.255Z,21.20
2018-04-19T19:05:39.259Z,21.20
2018-04-19T19:08:06.302Z,21.00
2018-04-19T19:10:33.309Z,20.90
2018-04-19T19:18:39.281Z,20.20
2018-04-19T19:21:06.245Z,20.20
2018-04-19T19:23:33.248Z,20.30
2018-04-19T19:26:01.767Z,20.20
2018-04-19T19:28:27.834Z,20.10
2018-04-19T19:33:33.555Z,20.00
2018-04-19T19:36:00.553Z,20.10
2018-04-19T19:38:30.419Z,20.10
2018-04-19T19:40:55.053Z,19.90
2018-04-19T19:43:24.867Z,19.90
2018-04-19T19:45:53.658Z,19.90
2018-04-19T19:48:20.696Z,19.80
2018-04-19T19:50:49.218Z,19.80
2018-04-19T19:53:16.724Z,19.70
2018-04-19T19:55:44.184Z,19.50
2018-04-19T19:58:11.538Z,19.30
2018-04-19T20:00:39.702Z,19.30
2018-04-19T20:03:08.656Z,19.10
2018-04-19T20:05:33.976Z,19.10
2018-04-19T20:08:01.161Z,19.00
2018-04-19T20:10:28.609Z,18.90
2018-04-19T20:13:00.522Z,18.90
2018-04-19T20:15:27.531Z,18.80
2018-04-19T20:20:34.493Z,18.70
2018-04-19T20:23:01.515Z,18.80
2018-04-19T20:25:28.496Z,18.70
2018-04-19T20:27:55.474Z,18.60
2018-04-19T20:30:22.497Z,18.40
2018-04-19T20:35:16.745Z,18.30
2018-04-19T20:37:43.765Z,18.10
2018-04-19T20:40:10.799Z,18.00
2018-04-19T20:42:37.780Z,17.90
2018-04-19T20:45:04.825Z,18.00
2018-04-19T20:47:32.060Z,18.00
2018-04-19T20:49:59.043Z,18.00
2018-04-19T20:52:26.083Z,18.00
2018-04-19T20:54:56.945Z,18.00
2018-04-19T20:57:25.525Z,17.80
2018-04-19T20:59:51.419Z,17.80
2018-04-19T21:02:18.420Z,17.60
2018-04-19T21:04:45.404Z,17.60
2018-04-19T21:07:12.433Z,17.60
2018-04-19T21:09:39.441Z,17.50
2018-04-19T21:12:06.434Z,17.30
2018-04-19T21:14:33.828Z,17.40
2018-04-19T21:17:00.830Z,17.20
2018-04-19T21:19:27.820Z,17.20
2018-04-19T21:21:55.273Z,17.20
2018-04-19T21:26:58.235Z,17.10
2018-04-19T21:29:26.255Z,17.20
2018-04-19T21:31:54.271Z,15.80
2018-04-19T21:34:21.474Z,17.20
2018-04-19T21:36:50.744Z,17.10
2018-04-19T21:39:18.093Z,17.00
2018-04-19T21:41:45.317Z,16.80
2018-04-19T21:44:13.077Z,16.80
2018-04-19T21:46:45.325Z,16.80
2018-04-19T21:49:13.120Z,16.90
2018-04-19T21:51:41.165Z,16.70
2018-04-19T21:54:08.159Z,16.60
2018-04-19T21:56:35.142Z,16.70
2018-04-19T22:01:46.630Z,16.90
2018-04-19T22:06:41.188Z,16.60
2018-04-19T22:09:08.644Z,16.50
2018-04-19T22:11:44.455Z,16.40
2018-04-19T22:14:12.132Z,16.40
2018-04-19T22:16:39.544Z,16.30
2018-04-19T22:19:09.585Z,16.30
2018-04-19T22:21:36.585Z,16.20
2018-04-19T22:24:03.581Z,16.20
2018-04-19T22:26:31.111Z,16.10
2018-04-19T22:28:58.136Z,16.20
2018-04-19T22:31:25.151Z,16.00
2018-04-19T22:33:52.663Z,16.00
2018-04-19T22:36:20.561Z,16.00
2018-04-19T22:38:47.283Z,16.00
2018-04-19T22:41:14.328Z,15.90
2018-04-19T22:43:41.319Z,15.60
2018-04-19T22:46:09.054Z,15.70
2018-04-19T22:48:36.091Z,15.80
2018-04-19T22:51:03.109Z,15.80
2018-04-19T22:56:00.441Z,15.50
2018-04-19T22:58:27.454Z,15.50
2018-04-19T23:00:54.873Z,15.40
2018-04-19T23:03:21.920Z,15.40
2018-04-19T23:08:16.012Z,15.40
2018-04-19T23:10:43.063Z,15.30
2018-04-19T23:15:37.167Z,14.80
2018-04-19T23:18:04.195Z,14.70
2018-04-19T23:22:58.335Z,14.80
2018-04-19T23:25:25.393Z,14.80
2018-04-19T23:30:30.931Z,14.80
2018-04-19T23:32:57.949Z,14.90
2018-04-19T23:35:24.956Z,15.00
2018-04-19T23:37:52.442Z,14.90
2018-04-19T23:40:19.476Z,14.90
2018-04-19T23:42:46.490Z,14.90
2018-04-19T23:45:13.551Z,14.70
2018-04-19T23:47:40.554Z,14.60
2018-04-19T23:50:07.873Z,14.10
2018-04-19T23:52:34.923Z,14.20
2018-04-19T23:55:01.945Z,14.20
2018-04-19T23:57:28.954Z,14.20
2018-04-19T23:59:55.986Z,14.30
